createdAt,value
2019-03-23T00:00:36.232Z,17.40
2019-03-23T00:03:09.105Z,13.97
2019-03-23T00:05:41.927Z,15.90
2019-03-23T00:08:14.426Z,16.10
2019-03-23T00:10:47.018Z,14.50
2019-03-23T00:13:19.684Z,15.17
2019-03-23T00:15:52.275Z,16.10
2019-03-23T00:18:24.804Z,17.23
2019-03-23T00:20:57.365Z,14.37
2019-03-23T00:23:29.863Z,12.47
2019-03-23T00:26:02.542Z,12.83
2019-03-23T00:28:35.135Z,12.97
2019-03-23T00:31:08.146Z,14.73
2019-03-23T00:33:40.977Z,14.17
2019-03-23T00:36:13.495Z,13.37
2019-03-23T00:38:46.344Z,13.90
2019-03-23T00:41:18.862Z,14.23
2019-03-23T00:43:51.452Z,13.77
2019-03-23T00:46:23.992Z,13.78
2019-03-23T00:48:56.588Z,18.07
2019-03-23T00:51:29.120Z,15.00
2019-03-23T00:54:01.645Z,14.33
2019-03-23T00:56:34.327Z,12.03
2019-03-23T00:59:06.857Z,14.83
2019-03-23T01:01:39.448Z,12.27
2019-03-23T01:04:12.042Z,13.93
2019-03-23T01:06:52.193Z,15.33
2019-03-23T01:09:19.354Z,14.13
2019-03-23T01:11:51.891Z,12.50
2019-03-23T01:14:24.856Z,15.80
2019-03-23T01:16:57.389Z,14.13
2019-03-23T01:19:29.915Z,15.25
2019-03-23T01:22:02.539Z,16.73
2019-03-23T01:24:35.140Z,15.40
2019-03-23T01:27:07.673Z,18.53
2019-03-23T01:29:41.146Z,14.73
2019-03-23T01:32:13.696Z,17.93
2019-03-23T01:34:46.481Z,14.33
2019-03-23T01:37:19.074Z,16.33
2019-03-23T01:39:51.866Z,16.53
2019-03-23T01:42:24.384Z,13.53
2019-03-23T01:44:56.889Z,16.87
2019-03-23T01:47:29.488Z,13.57
2019-03-23T01:50:02.100Z,15.37
2019-03-23T01:52:35.701Z,13.47
2019-03-23T01:55:08.780Z,17.30
2019-03-23T01:57:41.564Z,14.03
2019-03-23T02:00:14.818Z,13.13
2019-03-23T02:02:47.775Z,17.57
2019-03-23T02:05:20.402Z,16.63
2019-03-23T02:07:52.904Z,14.30
2019-03-23T02:10:25.399Z,15.63
2019-03-23T02:12:59.009Z,14.23
2019-03-23T02:15:31.672Z,13.20
2019-03-23T02:18:04.354Z,16.03
2019-03-23T02:20:37.288Z,14.50
2019-03-23T02:23:09.814Z,19.13
2019-03-23T02:25:42.595Z,18.17
2019-03-23T02:28:15.143Z,17.67
2019-03-23T02:30:47.786Z,16.30
2019-03-23T02:33:20.311Z,18.02
2019-03-23T02:35:53.386Z,17.77
2019-03-23T02:38:26.044Z,18.83
2019-03-23T02:40:58.562Z,17.40
2019-03-23T02:43:31.353Z,21.60
2019-03-23T02:46:04.132Z,18.67
2019-03-23T02:48:36.762Z,23.13
2019-03-23T02:51:09.290Z,15.57
2019-03-23T02:53:41.902Z,15.27
2019-03-23T02:56:14.435Z,15.60
2019-03-23T02:58:47.267Z,15.87
2019-03-23T03:01:19.780Z,19.53
2019-03-23T03:03:52.320Z,16.40
2019-03-23T03:06:25.103Z,16.03
2019-03-23T03:08:57.705Z,15.37
2019-03-23T03:11:30.215Z,17.73
2019-03-23T03:14:02.745Z,18.40
2019-03-23T03:16:35.516Z,14.27
2019-03-23T03:19:08.149Z,18.63
2019-03-23T03:21:40.745Z,14.97
2019-03-23T03:24:13.266Z,16.30
2019-03-23T03:26:45.869Z,18.13
2019-03-23T03:29:18.427Z,15.30
2019-03-23T03:31:50.989Z,15.47
2019-03-23T03:34:23.624Z,17.27
2019-03-23T03:36:56.513Z,16.83
2019-03-23T03:39:29.047Z,14.73
2019-03-23T03:42:01.998Z,17.30
2019-03-23T03:44:34.694Z,16.10
2019-03-23T03:47:07.376Z,14.97
2019-03-23T03:49:39.915Z,17.40
2019-03-23T03:52:12.573Z,15.73
2019-03-23T03:54:45.128Z,15.53
2019-03-23T03:57:18.061Z,21.90
2019-03-23T03:59:50.681Z,15.13
2019-03-23T04:02:23.375Z,16.70
2019-03-23T04:04:55.914Z,20.70
2019-03-23T04:07:28.458Z,20.52
2019-03-23T04:10:01.018Z,15.97
2019-03-23T04:12:33.564Z,17.60
2019-03-23T04:15:07.221Z,16.12
2019-03-23T04:17:40.174Z,16.03
2019-03-23T04:20:13.290Z,17.40
2019-03-23T04:22:45.842Z,17.20
2019-03-23T04:25:18.521Z,15.50
2019-03-23T04:27:51.157Z,19.17
2019-03-23T04:30:23.792Z,14.60
2019-03-23T04:32:56.344Z,15.50
2019-03-23T04:35:29.339Z,15.67
2019-03-23T04:38:01.893Z,19.83
2019-03-23T04:40:34.436Z,15.53
2019-03-23T04:43:07.122Z,17.30
2019-03-23T04:45:39.916Z,21.17
2019-03-23T04:48:12.493Z,16.27
2019-03-23T04:50:45.209Z,17.80
2019-03-23T04:53:17.955Z,16.55
2019-03-23T04:55:50.605Z,17.00
2019-03-23T04:58:23.183Z,17.77
2019-03-23T05:00:55.874Z,15.50
2019-03-23T05:03:28.688Z,17.73
2019-03-23T05:06:01.234Z,15.70
2019-03-23T05:08:33.914Z,14.27
2019-03-23T05:11:06.783Z,18.97
2019-03-23T05:13:39.349Z,17.23
2019-03-23T05:16:12.478Z,15.78
2019-03-23T05:18:45.037Z,15.70
2019-03-23T05:21:17.680Z,17.07
2019-03-23T05:23:50.315Z,19.30
2019-03-23T05:26:23.354Z,18.47
2019-03-23T05:28:56.356Z,17.53
2019-03-23T05:31:28.929Z,19.02
2019-03-23T05:34:01.491Z,18.97
2019-03-23T05:36:34.170Z,14.73
2019-03-23T05:39:08.207Z,20.17
2019-03-23T05:41:40.763Z,20.20
2019-03-23T05:44:13.499Z,18.20
2019-03-23T05:46:46.050Z,18.67
2019-03-23T05:49:18.624Z,18.20
2019-03-23T05:51:51.170Z,16.43
2019-03-23T05:54:23.749Z,21.68
2019-03-23T05:56:56.666Z,20.43
2019-03-23T05:59:29.225Z,20.70
2019-03-23T06:02:02.009Z,21.10
2019-03-23T06:04:34.584Z,19.63
2019-03-23T06:07:07.547Z,19.57
2019-03-23T06:09:40.153Z,20.30
2019-03-23T06:12:12.785Z,21.30
2019-03-23T06:14:45.422Z,19.97
2019-03-23T06:17:18.080Z,18.57
2019-03-23T06:19:50.629Z,19.47
2019-03-23T06:22:23.255Z,19.65
2019-03-23T06:24:55.811Z,19.80
2019-03-23T06:27:28.613Z,20.32
2019-03-23T06:30:01.188Z,22.23
2019-03-23T06:32:33.826Z,17.93
2019-03-23T06:35:06.826Z,18.03
2019-03-23T06:37:39.534Z,18.73
2019-03-23T06:40:12.622Z,21.53
2019-03-23T06:42:45.976Z,18.37
2019-03-23T06:45:19.181Z,20.43
2019-03-23T06:47:51.731Z,20.90
2019-03-23T06:50:24.282Z,21.60
2019-03-23T06:52:56.831Z,21.00
2019-03-23T06:55:29.559Z,22.67
2019-03-23T06:58:02.581Z,21.27
2019-03-23T07:00:35.316Z,25.47
2019-03-23T07:03:07.977Z,23.27
2019-03-23T07:05:40.568Z,27.43
2019-03-23T07:08:13.483Z,30.63
2019-03-23T07:10:46.198Z,37.20
2019-03-23T07:13:18.746Z,39.93
2019-03-23T07:15:51.345Z,40.33
2019-03-23T07:18:23.959Z,42.50
2019-03-23T07:20:56.610Z,46.30
2019-03-23T07:23:29.177Z,42.23
2019-03-23T07:26:01.805Z,45.37
2019-03-23T07:28:34.444Z,39.40
2019-03-23T07:31:07.148Z,33.23
2019-03-23T07:33:39.706Z,28.10
2019-03-23T07:36:13.467Z,35.33
2019-03-23T07:38:46.240Z,31.50
2019-03-23T07:41:19.262Z,33.80
2019-03-23T07:43:51.798Z,33.77
2019-03-23T07:46:24.968Z,31.17
2019-03-23T07:48:57.546Z,32.53
2019-03-23T07:51:30.226Z,31.40
2019-03-23T07:54:03.286Z,33.60
2019-03-23T07:56:35.999Z,29.47
2019-03-23T07:59:08.951Z,33.10
2019-03-23T08:01:41.621Z,30.23
2019-03-23T08:04:14.508Z,32.53
2019-03-23T08:06:47.201Z,33.93
2019-03-23T08:09:21.683Z,34.80
2019-03-23T08:11:54.839Z,34.30
2019-03-23T08:14:27.579Z,30.40
2019-03-23T08:17:00.501Z,31.93
2019-03-23T08:19:33.308Z,33.13
2019-03-23T08:22:06.219Z,38.23
2019-03-23T08:24:38.885Z,34.93
2019-03-23T08:27:12.199Z,37.28
2019-03-23T08:29:44.787Z,35.33
2019-03-23T08:32:17.331Z,38.73
2019-03-23T08:34:50.308Z,34.43
2019-03-23T08:37:22.868Z,38.00
2019-03-23T08:39:55.440Z,36.47
2019-03-23T08:42:27.978Z,32.10
2019-03-23T08:45:00.550Z,37.53
2019-03-23T08:47:33.185Z,30.10
2019-03-23T08:50:06.243Z,36.63
2019-03-23T08:52:38.906Z,35.13
2019-03-23T08:55:13.450Z,34.97
2019-03-23T08:57:46.009Z,37.60
2019-03-23T09:00:18.732Z,35.73
2019-03-23T09:02:51.312Z,32.73
2019-03-23T09:05:23.965Z,36.13
2019-03-23T09:07:56.689Z,37.30
2019-03-23T09:10:29.540Z,38.27
2019-03-23T09:13:02.168Z,36.63
2019-03-23T09:15:34.928Z,40.30
2019-03-23T09:18:07.748Z,40.40
2019-03-23T09:20:40.482Z,44.63
2019-03-23T09:23:13.070Z,38.43
2019-03-23T09:25:45.906Z,36.67
2019-03-23T09:28:18.445Z,40.90
2019-03-23T09:30:51.008Z,39.37
2019-03-23T09:33:23.666Z,37.90
2019-03-23T09:35:56.328Z,41.67
2019-03-23T09:38:29.045Z,30.43
2019-03-23T09:41:01.703Z,39.13
2019-03-23T09:43:34.524Z,36.07
2019-03-23T09:46:07.207Z,32.43
2019-03-23T09:48:40.117Z,40.47
2019-03-23T09:51:12.875Z,39.13
2019-03-23T09:53:45.522Z,39.93
2019-03-23T09:56:18.084Z,34.10
2019-03-23T09:58:50.631Z,33.67
2019-03-23T10:01:23.251Z,36.68
2019-03-23T10:03:55.834Z,46.33
2019-03-23T10:06:28.409Z,32.25
2019-03-23T10:09:01.213Z,25.70
2019-03-23T10:11:35.219Z,38.83
2019-03-23T10:14:07.895Z,36.90
2019-03-23T10:16:40.608Z,33.30
2019-03-23T10:19:13.330Z,45.17
2019-03-23T10:21:46.532Z,39.53
2019-03-23T10:24:19.428Z,36.93
2019-03-23T10:26:52.361Z,38.40
2019-03-23T10:29:25.085Z,37.47
2019-03-23T10:31:57.821Z,39.17
2019-03-23T10:34:30.697Z,37.00
2019-03-23T10:37:03.831Z,33.13
2019-03-23T10:39:36.573Z,32.83
2019-03-23T10:42:11.604Z,34.40
2019-03-23T10:44:44.559Z,41.33
2019-03-23T10:47:17.315Z,36.87
2019-03-23T10:49:51.387Z,39.53
2019-03-23T10:52:24.121Z,38.57
2019-03-23T10:54:56.830Z,38.77
2019-03-23T10:57:29.476Z,40.43
2019-03-23T11:00:02.163Z,39.83
2019-03-23T11:02:34.875Z,36.87
2019-03-23T11:05:08.522Z,37.17
2019-03-23T11:07:41.234Z,38.17
2019-03-23T11:10:14.431Z,38.47
2019-03-23T11:12:47.186Z,38.77
2019-03-23T11:15:20.589Z,27.63
2019-03-23T11:17:53.186Z,36.67
2019-03-23T11:20:25.814Z,40.97
2019-03-23T11:22:58.717Z,36.87
2019-03-23T11:25:31.424Z,38.57
2019-03-23T11:28:04.305Z,34.87
2019-03-23T11:30:36.982Z,38.23
2019-03-23T11:33:09.581Z,38.97
2019-03-23T11:35:42.262Z,34.93
2019-03-23T11:38:14.842Z,34.27
2019-03-23T11:40:52.932Z,38.87
2019-03-23T11:43:21.745Z,36.53
2019-03-23T11:45:54.384Z,37.17
2019-03-23T11:48:27.028Z,40.60
2019-03-23T11:50:59.592Z,34.63
2019-03-23T11:53:32.261Z,40.03
2019-03-23T11:56:05.098Z,40.07
2019-03-23T11:58:37.757Z,36.50
2019-03-23T12:01:11.093Z,35.10
2019-03-23T12:03:43.759Z,34.43
2019-03-23T12:06:17.117Z,35.80
2019-03-23T12:08:49.768Z,33.93
2019-03-23T12:11:22.430Z,38.83
2019-03-23T12:13:55.155Z,36.00
2019-03-23T12:16:27.826Z,35.52
2019-03-23T12:19:00.777Z,36.80
2019-03-23T12:21:33.574Z,36.17
2019-03-23T12:24:06.322Z,31.60
2019-03-23T12:26:39.075Z,27.90
2019-03-23T12:29:12.061Z,32.48
2019-03-23T12:31:44.648Z,41.80
2019-03-23T12:34:17.246Z,24.70
2019-03-23T12:36:50.061Z,40.53
2019-03-23T12:39:22.740Z,36.63
2019-03-23T12:41:55.508Z,38.13
2019-03-23T12:44:28.378Z,33.93
2019-03-23T12:47:01.261Z,36.87
2019-03-23T12:49:33.948Z,33.63
2019-03-23T12:52:07.076Z,33.67
2019-03-23T12:54:40.113Z,30.70
2019-03-23T12:57:12.919Z,30.70
2019-03-23T12:59:45.643Z,33.47
2019-03-23T13:02:18.363Z,35.80
2019-03-23T13:04:51.500Z,33.10
2019-03-23T13:07:24.220Z,32.63
2019-03-23T13:09:56.853Z,36.33
2019-03-23T13:12:29.595Z,35.93
2019-03-23T13:15:03.259Z,34.17
2019-03-23T13:17:36.350Z,32.67
2019-03-23T13:20:10.562Z,37.13
2019-03-23T13:22:43.190Z,35.43
2019-03-23T13:25:15.885Z,38.93
2019-03-23T13:27:48.640Z,33.87
2019-03-23T13:30:21.384Z,34.73
2019-03-23T13:32:53.980Z,35.07
2019-03-23T13:35:26.675Z,30.60
2019-03-23T13:37:59.354Z,32.83
2019-03-23T13:40:32.027Z,32.63
2019-03-23T13:43:04.690Z,30.63
2019-03-23T13:45:42.642Z,32.83
2019-03-23T13:48:12.401Z,33.53
2019-03-23T13:50:45.124Z,39.90
2019-03-23T13:53:18.093Z,38.00
2019-03-23T13:55:51.002Z,39.83
2019-03-23T13:58:23.580Z,36.67
2019-03-23T14:00:56.311Z,37.77
2019-03-23T14:03:28.981Z,41.15
2019-03-23T14:06:01.730Z,38.23
2019-03-23T14:08:34.660Z,38.17
2019-03-23T14:11:07.401Z,36.10
2019-03-23T14:13:40.015Z,35.23
2019-03-23T14:16:13.123Z,36.90
2019-03-23T14:18:45.990Z,38.47
2019-03-23T14:21:18.738Z,36.60
2019-03-23T14:23:51.688Z,37.53
2019-03-23T14:26:24.462Z,37.00
2019-03-23T14:28:57.082Z,37.53
2019-03-23T14:31:29.708Z,38.80
2019-03-23T14:34:02.757Z,38.50
2019-03-23T14:36:35.435Z,40.23
2019-03-23T14:39:09.200Z,36.90
2019-03-23T14:41:41.844Z,40.40
2019-03-23T14:44:14.410Z,39.73
2019-03-23T14:46:47.443Z,43.33
2019-03-23T14:49:20.145Z,40.40
2019-03-23T14:51:53.061Z,37.67
2019-03-23T14:54:26.435Z,40.88
2019-03-23T14:56:59.227Z,38.30
2019-03-23T14:59:31.968Z,39.23
2019-03-23T15:02:04.783Z,39.10
2019-03-23T15:04:37.759Z,36.57
2019-03-23T15:07:11.691Z,44.00
2019-03-23T15:09:44.428Z,37.80
2019-03-23T15:12:17.117Z,41.70
2019-03-23T15:14:49.744Z,37.13
2019-03-23T15:17:22.504Z,41.05
2019-03-23T15:19:55.793Z,39.10
2019-03-23T15:22:28.575Z,43.33
2019-03-23T15:25:01.315Z,43.70
2019-03-23T15:27:34.052Z,40.23
2019-03-23T15:30:07.873Z,40.20
2019-03-23T15:32:40.740Z,44.43
2019-03-23T15:35:13.615Z,44.27
2019-03-23T15:37:46.382Z,46.17
2019-03-23T15:40:19.202Z,38.65
2019-03-23T15:42:52.061Z,41.60
2019-03-23T15:45:25.353Z,41.55
2019-03-23T15:47:58.142Z,44.30
2019-03-23T15:50:30.900Z,40.50
2019-03-23T15:53:03.723Z,40.97
2019-03-23T15:55:37.018Z,40.57
2019-03-23T15:58:09.767Z,39.77
2019-03-23T16:00:42.360Z,40.40
2019-03-23T16:03:15.976Z,40.17
2019-03-23T16:05:48.664Z,38.73
2019-03-23T16:08:21.338Z,38.73
2019-03-23T16:10:54.138Z,39.20
2019-03-23T16:13:26.889Z,42.43
2019-03-23T16:15:59.676Z,39.37
2019-03-23T16:18:32.366Z,40.93
2019-03-23T16:21:05.255Z,40.47
2019-03-23T16:23:37.894Z,40.37
2019-03-23T16:26:12.013Z,40.60
2019-03-23T16:28:44.786Z,40.50
2019-03-23T16:31:17.361Z,40.20
2019-03-23T16:33:49.936Z,40.70
2019-03-23T16:36:22.630Z,42.80
2019-03-23T16:38:55.508Z,41.43
2019-03-23T16:41:28.401Z,42.70
2019-03-23T16:44:01.128Z,45.27
2019-03-23T16:46:34.746Z,44.23
2019-03-23T16:49:08.590Z,41.40
2019-03-23T16:51:41.563Z,42.80
2019-03-23T16:54:14.139Z,48.50
2019-03-23T16:56:47.327Z,51.30
2019-03-23T16:59:20.664Z,44.90
2019-03-23T17:01:57.018Z,46.13
2019-03-23T17:04:30.429Z,45.67
2019-03-23T17:07:03.939Z,42.73
2019-03-23T17:09:37.295Z,44.23
2019-03-23T17:12:10.262Z,47.00
2019-03-23T17:14:43.270Z,47.10
2019-03-23T17:17:16.230Z,44.47
2019-03-23T17:19:49.591Z,43.87
2019-03-23T17:22:22.598Z,44.18
2019-03-23T17:24:55.640Z,43.03
2019-03-23T17:27:28.709Z,47.73
2019-03-23T17:30:01.767Z,50.40
2019-03-23T17:32:35.954Z,46.17
2019-03-23T17:35:09.115Z,45.60
2019-03-23T17:37:43.029Z,50.17
2019-03-23T17:40:16.351Z,43.03
2019-03-23T17:42:51.177Z,37.50
2019-03-23T17:45:24.600Z,41.00
2019-03-23T17:47:57.980Z,39.20
2019-03-23T17:50:31.240Z,35.70
2019-03-23T17:53:04.901Z,44.13
2019-03-23T17:55:38.375Z,32.77
2019-03-23T17:58:12.948Z,36.57
2019-03-23T18:00:48.840Z,35.20
2019-03-23T18:03:22.196Z,39.40
2019-03-23T18:05:55.510Z,38.63
2019-03-23T18:08:28.711Z,34.67
2019-03-23T18:11:04.182Z,35.43
2019-03-23T18:13:37.328Z,33.60
2019-03-23T18:16:10.885Z,38.17
2019-03-23T18:18:46.524Z,36.07
2019-03-23T18:21:20.353Z,34.03
2019-03-23T18:23:54.008Z,30.83
2019-03-23T18:26:30.941Z,35.37
2019-03-23T18:29:08.417Z,31.33
2019-03-23T18:31:49.745Z,35.60
2019-03-23T18:34:24.201Z,36.63
2019-03-23T18:36:58.216Z,35.60
2019-03-23T18:39:31.365Z,33.57
2019-03-23T18:42:04.844Z,34.40
2019-03-23T18:44:38.315Z,31.97
2019-03-23T18:47:12.487Z,30.70
2019-03-23T18:49:45.763Z,32.23
2019-03-23T18:52:21.626Z,35.63
2019-03-23T18:55:02.712Z,30.48
2019-03-23T18:57:39.044Z,32.17
2019-03-23T19:00:24.593Z,34.73
2019-03-23T19:02:59.379Z,30.60
2019-03-23T19:06:14.402Z,30.87
2019-03-23T19:08:47.715Z,37.90
2019-03-23T19:11:34.157Z,30.12
2019-03-23T19:14:09.812Z,30.80
2019-03-23T19:16:47.982Z,32.33
2019-03-23T19:19:22.899Z,27.22
2019-03-23T19:21:56.973Z,30.87
2019-03-23T19:24:31.122Z,30.60
2019-03-23T19:27:05.064Z,37.03
2019-03-23T19:29:45.730Z,35.37
2019-03-23T19:32:20.867Z,41.83
2019-03-23T19:34:53.874Z,37.90
2019-03-23T19:37:26.716Z,40.23
2019-03-23T19:39:59.577Z,36.17
2019-03-23T19:42:32.376Z,34.08
2019-03-23T19:45:05.558Z,33.27
2019-03-23T19:47:38.798Z,37.67
2019-03-23T19:50:12.631Z,40.85
2019-03-23T19:52:45.424Z,32.20
2019-03-23T19:55:18.126Z,29.30
2019-03-23T19:57:54.480Z,40.83
2019-03-23T20:00:26.862Z,35.40
2019-03-23T20:02:59.882Z,35.80
2019-03-23T20:05:32.738Z,37.50
2019-03-23T20:08:05.460Z,36.30
2019-03-23T20:10:38.326Z,31.20
2019-03-23T20:13:11.240Z,36.53
2019-03-23T20:15:44.092Z,44.17
2019-03-23T20:18:16.880Z,36.93
2019-03-23T20:20:50.542Z,35.07
2019-03-23T20:23:23.477Z,29.97
2019-03-23T20:25:56.211Z,35.10
2019-03-23T20:28:28.998Z,34.83
2019-03-23T20:31:01.893Z,32.73
2019-03-23T20:33:34.619Z,31.60
2019-03-23T20:36:07.394Z,32.27
2019-03-23T20:38:40.191Z,31.03
2019-03-23T20:41:13.003Z,34.40
2019-03-23T20:43:45.750Z,31.47
2019-03-23T20:46:18.537Z,32.53
2019-03-23T20:48:51.658Z,35.00
2019-03-23T20:51:24.359Z,35.03
2019-03-23T20:53:57.182Z,31.40
2019-03-23T20:56:30.344Z,31.63
2019-03-23T20:59:03.113Z,35.73
2019-03-23T21:01:35.935Z,29.17
2019-03-23T21:04:08.997Z,32.83
2019-03-23T21:06:41.809Z,34.60
2019-03-23T21:09:14.682Z,34.47
2019-03-23T21:11:47.448Z,32.87
2019-03-23T21:14:20.720Z,30.13
2019-03-23T21:16:53.540Z,33.60
2019-03-23T21:19:26.247Z,32.10
2019-03-23T21:21:59.041Z,34.27
2019-03-23T21:24:31.755Z,33.33
2019-03-23T21:27:04.497Z,36.90
2019-03-23T21:29:37.693Z,33.70
2019-03-23T21:32:12.765Z,29.13
2019-03-23T21:34:45.485Z,37.00
2019-03-23T21:37:18.819Z,28.97
2019-03-23T21:39:51.535Z,27.90
2019-03-23T21:42:24.223Z,34.07
2019-03-23T21:44:56.873Z,33.73
2019-03-23T21:47:29.488Z,35.70
2019-03-23T21:50:02.139Z,36.63
2019-03-23T21:52:34.832Z,32.60
2019-03-23T21:55:08.224Z,37.40
2019-03-23T21:57:41.172Z,38.90
2019-03-23T22:00:26.093Z,38.03
2019-03-23T22:02:58.684Z,34.43
2019-03-23T22:05:31.473Z,35.10
2019-03-23T22:08:04.266Z,30.80
2019-03-23T22:10:37.000Z,30.03
2019-03-23T22:13:10.643Z,31.40
2019-03-23T22:15:43.362Z,32.40
2019-03-23T22:18:16.000Z,34.13
2019-03-23T22:20:48.583Z,32.00
2019-03-23T22:23:21.142Z,39.00
2019-03-23T22:25:53.780Z,32.17
2019-03-23T22:28:26.409Z,39.10
2019-03-23T22:30:58.951Z,33.77
2019-03-23T22:33:31.510Z,34.13
2019-03-23T22:36:05.122Z,40.67
2019-03-23T22:38:37.765Z,38.33
2019-03-23T22:41:10.420Z,37.53
2019-03-23T22:43:42.961Z,36.93
2019-03-23T22:46:16.520Z,42.10
2019-03-23T22:48:49.086Z,39.93
2019-03-23T22:51:21.651Z,33.37
2019-03-23T22:53:55.410Z,37.70
2019-03-23T22:56:28.489Z,39.17
2019-03-23T22:59:01.042Z,37.77
2019-03-23T23:01:33.764Z,46.53
2019-03-23T23:04:06.472Z,38.57
2019-03-23T23:06:39.183Z,39.43
2019-03-23T23:09:12.553Z,35.28
2019-03-23T23:11:45.175Z,33.23
2019-03-23T23:14:19.334Z,36.00
2019-03-23T23:16:51.969Z,36.63
2019-03-23T23:19:24.617Z,40.50
2019-03-23T23:21:57.248Z,40.13
2019-03-23T23:24:29.930Z,37.60
2019-03-23T23:27:02.485Z,40.33
2019-03-23T23:29:35.189Z,42.43
2019-03-23T23:32:07.882Z,42.03
2019-03-23T23:34:40.797Z,41.13
2019-03-23T23:37:13.337Z,39.53
2019-03-23T23:39:45.924Z,38.47
2019-03-23T23:42:19.121Z,39.57
2019-03-23T23:44:51.754Z,40.10
2019-03-23T23:47:24.374Z,32.57
2019-03-23T23:49:56.923Z,35.10
2019-03-23T23:52:29.623Z,36.00
2019-03-23T23:55:02.518Z,34.00
2019-03-23T23:57:35.152Z,39.47
